Salina, KS

9:16 PM CST on December 21, 2014 (GMT -0600)
Blosser Municipal | Change Station
CLOSE
Current Station
Airport
Location: Concordia,
Elevation: 1483 ft
Nearby Weather Stations

Elev 1483 ft 39.55 °N, 97.65 °W | Updated 21 minutes ago

Overcast
Overcast
43 °F
Feels Like 38 °F
N
9
Wind Variable Wind from South

Today
High -- | Low -- °F
--% Chance of Precip.
Yesterday
High -- | Low -- °F
Precip. -- in
7:45 AM 5:12 PM
New Moon, 0% visible
Pressure 29.65 in
Visibility 8.0 miles
Clouds Overcast 600 ft
Windchill 38 °F
Dew Point 43 °F
Humidity 100%
Rainfall 0.01 in
Snow Depth Not available.
UV 0 out of 12
Pollen .10 out of 12
Air Quality Not available.
Flu Activity Not available.
METAR KCNK 220255Z AUTO 18008KT 8SM OVC006 06/06 A2964 RMK AO2 SLP041 60001 T00610061 58007

More Conditions Fewer Conditions

Pressure 29.65 in
Visibility 8.0 miles
Clouds Overcast 600 ft
Windchill 38 °F
Dew Point 43 °F
Humidity 100%
Rainfall 0.01 in
Snow Depth Not available.
UV 0 out of 12
Pollen .10 out of 12
Air Quality Not available.
Flu Activity Not available.
METAR KCNK 220255Z AUTO 18008KT 8SM OVC006 06/06 A2964 RMK AO2 SLP041 60001 T00610061 58007

More Conditions Fewer Conditions

10-Day Weather Forecast

Almanac

Astronomy

Dec. 21, 2014 Rise Set
Actual Time
Civil Twilight
Nautical Twilight
Astronomical Twilight
Moon
Length of Visible Light
Length of Day
Tomorrow will be .
, % of the Moon is Illuminated

Today's Extremes

State Highs State Lows

Community

WunderPhotos

Upload Photos

1,779,529 photos uploaded!

WunderBlogs® & News

Nearby

Air Quality

  Air Quality AQ Index Pollutant
Not available.

Snow Depth

Station Depth Elevation

Earthquake Activity

City Distance Mag. Time & Date
Minimum magnitude displayed is 2.5.

Coastal Water Temperatures

Place Temperature

Nearby Weather Stations